sensor_id;sensor_type;location;lat;lon;timestamp;temperature;humidity
16263;DHT22;8239;48.594;8.598;2023-08-07T00:01:48;9.30;99.90
16263;DHT22;8239;48.594;8.598;2023-08-07T00:04:16;9.20;99.90
16263;DHT22;8239;48.594;8.598;2023-08-07T00:06:43;9.20;99.90
16263;DHT22;8239;48.594;8.598;2023-08-07T00:09:10;9.20;99.90
16263;DHT22;8239;48.594;8.598;2023-08-07T00:11:37;9.10;99.90
16263;DHT22;8239;48.594;8.598;2023-08-07T00:14:04;9.10;99.90
16263;DHT22;8239;48.594;8.598;2023-08-07T00:16:31;9.10;99.90
16263;DHT22;8239;48.594;8.598;2023-08-07T00:18:58;9.10;99.90
16263;DHT22;8239;48.594;8.598;2023-08-07T00:21:26;9.10;99.90
16263;DHT22;8239;48.594;8.598;2023-08-07T00:23:53;9.10;99.90
16263;DHT22;8239;48.594;8.598;2023-08-07T00:26:21;9.10;99.90
16263;DHT22;8239;48.594;8.598;2023-08-07T00:28:48;9.10;99.90
16263;DHT22;8239;48.594;8.598;2023-08-07T00:31:15;9.10;99.90
16263;DHT22;8239;48.594;8.598;2023-08-07T00:33:41;9.10;99.90
16263;DHT22;8239;48.594;8.598;2023-08-07T00:36:08;9.00;99.90
16263;DHT22;8239;48.594;8.598;2023-08-07T00:38:37;9.00;99.90
16263;DHT22;8239;48.594;8.598;2023-08-07T00:41:04;9.10;99.90
16263;DHT22;8239;48.594;8.598;2023-08-07T00:43:33;9.10;99.90
16263;DHT22;8239;48.594;8.598;2023-08-07T00:46:00;9.20;99.90
16263;DHT22;8239;48.594;8.598;2023-08-07T00:48:27;9.20;99.90
16263;DHT22;8239;48.594;8.598;2023-08-07T00:50:54;9.20;99.90
16263;DHT22;8239;48.594;8.598;2023-08-07T00:53:22;9.30;99.90
16263;DHT22;8239;48.594;8.598;2023-08-07T00:55:50;9.30;99.90
16263;DHT22;8239;48.594;8.598;2023-08-07T00:58:18;9.30;99.90
16263;DHT22;8239;48.594;8.598;2023-08-07T01:00:45;9.30;99.90
16263;DHT22;8239;48.594;8.598;2023-08-07T01:03:12;9.30;99.90
16263;DHT22;8239;48.594;8.598;2023-08-07T01:05:40;9.30;99.90
16263;DHT22;8239;48.594;8.598;2023-08-07T01:08:07;9.30;99.90
16263;DHT22;8239;48.594;8.598;2023-08-07T01:10:39;9.20;99.90
16263;DHT22;8239;48.594;8.598;2023-08-07T01:13:16;9.20;99.90
16263;DHT22;8239;48.594;8.598;2023-08-07T01:15:47;9.20;99.90
16263;DHT22;8239;48.594;8.598;2023-08-07T01:18:16;9.20;99.90
16263;DHT22;8239;48.594;8.598;2023-08-07T01:20:43;9.20;99.90
16263;DHT22;8239;48.594;8.598;2023-08-07T01:23:12;9.30;99.90
16263;DHT22;8239;48.594;8.598;2023-08-07T01:25:39;9.30;99.90
16263;DHT22;8239;48.594;8.598;2023-08-07T01:28:12;9.30;99.90
16263;DHT22;8239;48.594;8.598;2023-08-07T01:30:46;9.30;99.90
16263;DHT22;8239;48.594;8.598;2023-08-07T01:33:31;9.30;99.90
16263;DHT22;8239;48.594;8.598;2023-08-07T01:36:02;9.30;99.90
16263;DHT22;8239;48.594;8.598;2023-08-07T01:38:32;9.20;99.90
16263;DHT22;8239;48.594;8.598;2023-08-07T01:41:00;9.30;99.90
16263;DHT22;8239;48.594;8.598;2023-08-07T01:43:27;9.30;99.90
16263;DHT22;8239;48.594;8.598;2023-08-07T01:45:54;9.30;99.90
16263;DHT22;8239;48.594;8.598;2023-08-07T01:48:21;9.20;99.90
16263;DHT22;8239;48.594;8.598;2023-08-07T01:50:48;9.30;99.90
16263;DHT22;8239;48.594;8.598;2023-08-07T01:53:15;9.30;99.90
16263;DHT22;8239;48.594;8.598;2023-08-07T01:55:43;9.30;99.90
16263;DHT22;8239;48.594;8.598;2023-08-07T01:58:10;9.40;99.90
16263;DHT22;8239;48.594;8.598;2023-08-07T02:00:37;9.30;99.90
16263;DHT22;8239;48.594;8.598;2023-08-07T02:03:04;9.40;99.90
16263;DHT22;8239;48.594;8.598;2023-08-07T02:05:39;9.40;99.90
16263;DHT22;8239;48.594;8.598;2023-08-07T02:08:06;9.30;99.90
16263;DHT22;8239;48.594;8.598;2023-08-07T02:10:33;9.30;99.90
16263;DHT22;8239;48.594;8.598;2023-08-07T02:13:00;9.40;99.90
16263;DHT22;8239;48.594;8.598;2023-08-07T02:15:27;9.40;99.90
16263;DHT22;8239;48.594;8.598;2023-08-07T02:17:54;9.40;99.90
16263;DHT22;8239;48.594;8.598;2023-08-07T02:20:21;9.40;99.90
16263;DHT22;8239;48.594;8.598;2023-08-07T02:22:49;9.40;99.90
16263;DHT22;8239;48.594;8.598;2023-08-07T02:25:17;9.40;99.90
16263;DHT22;8239;48.594;8.598;2023-08-07T02:27:43;9.40;99.90
16263;DHT22;8239;48.594;8.598;2023-08-07T02:30:11;9.50;99.90
16263;DHT22;8239;48.594;8.598;2023-08-07T02:32:38;9.50;99.90
16263;DHT22;8239;48.594;8.598;2023-08-07T02:35:07;9.50;99.90
16263;DHT22;8239;48.594;8.598;2023-08-07T02:37:34;9.50;99.90
16263;DHT22;8239;48.594;8.598;2023-08-07T02:40:03;9.50;99.90
16263;DHT22;8239;48.594;8.598;2023-08-07T02:42:30;9.50;99.90
16263;DHT22;8239;48.594;8.598;2023-08-07T02:44:57;9.60;99.90
16263;DHT22;8239;48.594;8.598;2023-08-07T02:47:24;9.50;99.90
16263;DHT22;8239;48.594;8.598;2023-08-07T02:49:54;9.60;99.90
16263;DHT22;8239;48.594;8.598;2023-08-07T02:52:21;9.50;99.90
16263;DHT22;8239;48.594;8.598;2023-08-07T02:54:48;9.50;99.90
16263;DHT22;8239;48.594;8.598;2023-08-07T02:57:16;9.50;99.90
16263;DHT22;8239;48.594;8.598;2023-08-07T02:59:43;9.50;99.90
16263;DHT22;8239;48.594;8.598;2023-08-07T03:02:10;9.50;99.90
16263;DHT22;8239;48.594;8.598;2023-08-07T03:04:37;9.50;99.90
16263;DHT22;8239;48.594;8.598;2023-08-07T03:07:04;9.40;99.90
16263;DHT22;8239;48.594;8.598;2023-08-07T03:09:31;9.40;99.90
16263;DHT22;8239;48.594;8.598;2023-08-07T03:11:58;9.40;99.90
16263;DHT22;8239;48.594;8.598;2023-08-07T03:14:30;9.40;99.90
16263;DHT22;8239;48.594;8.598;2023-08-07T03:16:57;9.30;99.90
16263;DHT22;8239;48.594;8.598;2023-08-07T03:19:24;9.20;99.90
16263;DHT22;8239;48.594;8.598;2023-08-07T03:21:51;9.10;99.90
16263;DHT22;8239;48.594;8.598;2023-08-07T03:24:18;9.10;99.90
16263;DHT22;8239;48.594;8.598;2023-08-07T03:26:45;9.00;99.90
16263;DHT22;8239;48.594;8.598;2023-08-07T03:29:12;9.00;99.90
16263;DHT22;8239;48.594;8.598;2023-08-07T03:31:41;9.00;99.90
16263;DHT22;8239;48.594;8.598;2023-08-07T03:34:08;9.00;99.90
16263;DHT22;8239;48.594;8.598;2023-08-07T03:36:34;8.90;99.90
16263;DHT22;8239;48.594;8.598;2023-08-07T03:39:01;8.90;99.90
16263;DHT22;8239;48.594;8.598;2023-08-07T03:41:28;8.90;99.90
16263;DHT22;8239;48.594;8.598;2023-08-07T03:43:55;8.90;99.90
16263;DHT22;8239;48.594;8.598;2023-08-07T03:46:22;8.90;99.90
16263;DHT22;8239;48.594;8.598;2023-08-07T03:48:50;8.90;99.90
16263;DHT22;8239;48.594;8.598;2023-08-07T03:51:17;8.90;99.90
16263;DHT22;8239;48.594;8.598;2023-08-07T03:53:44;8.90;99.90
16263;DHT22;8239;48.594;8.598;2023-08-07T03:56:11;8.90;99.90
16263;DHT22;8239;48.594;8.598;2023-08-07T03:58:38;8.90;99.90
16263;DHT22;8239;48.594;8.598;2023-08-07T04:01:05;9.00;99.90
16263;DHT22;8239;48.594;8.598;2023-08-07T04:03:32;9.00;99.90
16263;DHT22;8239;48.594;8.598;2023-08-07T04:06:00;9.00;99.90
16263;DHT22;8239;48.594;8.598;2023-08-07T04:08:27;9.00;99.90
16263;DHT22;8239;48.594;8.598;2023-08-07T04:10:58;9.10;99.90
16263;DHT22;8239;48.594;8.598;2023-08-07T04:13:26;9.10;99.90
16263;DHT22;8239;48.594;8.598;2023-08-07T04:15:53;9.10;99.90
16263;DHT22;8239;48.594;8.598;2023-08-07T04:18:19;9.10;99.90
16263;DHT22;8239;48.594;8.598;2023-08-07T04:20:49;9.10;99.90
16263;DHT22;8239;48.594;8.598;2023-08-07T04:23:17;9.10;99.90
16263;DHT22;8239;48.594;8.598;2023-08-07T04:25:45;9.10;99.90
16263;DHT22;8239;48.594;8.598;2023-08-07T04:28:12;9.10;99.90
16263;DHT22;8239;48.594;8.598;2023-08-07T04:30:39;9.10;99.90
16263;DHT22;8239;48.594;8.598;2023-08-07T04:33:06;9.10;99.90
16263;DHT22;8239;48.594;8.598;2023-08-07T04:35:33;9.10;99.90
16263;DHT22;8239;48.594;8.598;2023-08-07T04:38:00;9.10;99.90
16263;DHT22;8239;48.594;8.598;2023-08-07T04:40:29;9.10;99.90
16263;DHT22;8239;48.594;8.598;2023-08-07T04:42:56;9.10;99.90
16263;DHT22;8239;48.594;8.598;2023-08-07T04:45:23;9.10;99.90
16263;DHT22;8239;48.594;8.598;2023-08-07T04:47:50;9.20;99.90
16263;DHT22;8239;48.594;8.598;2023-08-07T04:50:17;9.20;99.90
16263;DHT22;8239;48.594;8.598;2023-08-07T04:52:44;9.20;99.90
16263;DHT22;8239;48.594;8.598;2023-08-07T04:55:11;9.30;99.90
16263;DHT22;8239;48.594;8.598;2023-08-07T04:57:39;9.40;99.90
16263;DHT22;8239;48.594;8.598;2023-08-07T05:00:07;9.50;99.90
16263;DHT22;8239;48.594;8.598;2023-08-07T05:02:35;9.60;99.90
16263;DHT22;8239;48.594;8.598;2023-08-07T05:05:02;9.70;99.90
16263;DHT22;8239;48.594;8.598;2023-08-07T05:07:29;9.80;99.90
16263;DHT22;8239;48.594;8.598;2023-08-07T05:09:57;9.80;99.90
16263;DHT22;8239;48.594;8.598;2023-08-07T05:12:25;9.90;99.90
16263;DHT22;8239;48.594;8.598;2023-08-07T05:14:53;10.10;99.90
16263;DHT22;8239;48.594;8.598;2023-08-07T05:17:20;10.10;99.90
16263;DHT22;8239;48.594;8.598;2023-08-07T05:19:47;10.20;99.90
16263;DHT22;8239;48.594;8.598;2023-08-07T05:22:15;10.40;99.90
16263;DHT22;8239;48.594;8.598;2023-08-07T05:24:42;10.40;99.90
16263;DHT22;8239;48.594;8.598;2023-08-07T05:27:10;10.50;99.90
16263;DHT22;8239;48.594;8.598;2023-08-07T05:29:37;10.50;99.90
16263;DHT22;8239;48.594;8.598;2023-08-07T05:32:11;10.60;99.90
16263;DHT22;8239;48.594;8.598;2023-08-07T05:34:38;10.70;99.90
16263;DHT22;8239;48.594;8.598;2023-08-07T05:37:06;10.80;99.90
16263;DHT22;8239;48.594;8.598;2023-08-07T05:39:33;10.90;99.90
16263;DHT22;8239;48.594;8.598;2023-08-07T05:42:00;11.00;99.90
16263;DHT22;8239;48.594;8.598;2023-08-07T05:44:28;11.10;99.90
16263;DHT22;8239;48.594;8.598;2023-08-07T05:46:55;11.30;99.90
16263;DHT22;8239;48.594;8.598;2023-08-07T05:49:23;11.50;99.90
16263;DHT22;8239;48.594;8.598;2023-08-07T05:51:51;11.70;99.90
16263;DHT22;8239;48.594;8.598;2023-08-07T05:54:18;11.90;99.90
16263;DHT22;8239;48.594;8.598;2023-08-07T05:56:44;12.00;99.90
16263;DHT22;8239;48.594;8.598;2023-08-07T05:59:11;12.10;99.90
16263;DHT22;8239;48.594;8.598;2023-08-07T06:01:38;12.10;99.90
16263;DHT22;8239;48.594;8.598;2023-08-07T06:04:06;12.20;99.90
16263;DHT22;8239;48.594;8.598;2023-08-07T06:06:36;12.20;99.90
16263;DHT22;8239;48.594;8.598;2023-08-07T06:09:05;12.30;99.90
16263;DHT22;8239;48.594;8.598;2023-08-07T06:11:32;12.50;99.90
16263;DHT22;8239;48.594;8.598;2023-08-07T06:13:59;12.60;99.90
16263;DHT22;8239;48.594;8.598;2023-08-07T06:16:26;12.70;99.90
16263;DHT22;8239;48.594;8.598;2023-08-07T06:18:53;12.80;99.90
16263;DHT22;8239;48.594;8.598;2023-08-07T06:21:20;13.00;99.90
16263;DHT22;8239;48.594;8.598;2023-08-07T06:23:49;13.20;99.90
16263;DHT22;8239;48.594;8.598;2023-08-07T06:26:16;13.30;99.90
16263;DHT22;8239;48.594;8.598;2023-08-07T06:28:43;13.30;99.90
16263;DHT22;8239;48.594;8.598;2023-08-07T06:31:11;13.40;99.90
16263;DHT22;8239;48.594;8.598;2023-08-07T06:33:38;13.40;99.90
16263;DHT22;8239;48.594;8.598;2023-08-07T06:36:06;13.50;99.90
16263;DHT22;8239;48.594;8.598;2023-08-07T06:38:34;13.60;99.90
16263;DHT22;8239;48.594;8.598;2023-08-07T06:41:02;13.80;99.90
16263;DHT22;8239;48.594;8.598;2023-08-07T06:43:29;14.00;99.90
16263;DHT22;8239;48.594;8.598;2023-08-07T06:45:57;14.30;99.80
16263;DHT22;8239;48.594;8.598;2023-08-07T06:48:24;14.40;99.00
16263;DHT22;8239;48.594;8.598;2023-08-07T06:50:51;14.40;97.80
16263;DHT22;8239;48.594;8.598;2023-08-07T06:53:19;14.30;97.70
16263;DHT22;8239;48.594;8.598;2023-08-07T06:55:46;14.30;98.60
16263;DHT22;8239;48.594;8.598;2023-08-07T06:58:14;14.40;97.90
16263;DHT22;8239;48.594;8.598;2023-08-07T07:00:41;14.60;97.40
16263;DHT22;8239;48.594;8.598;2023-08-07T07:03:08;14.70;96.70
16263;DHT22;8239;48.594;8.598;2023-08-07T07:05:35;14.70;96.90
16263;DHT22;8239;48.594;8.598;2023-08-07T07:08:02;14.80;96.30
16263;DHT22;8239;48.594;8.598;2023-08-07T07:10:30;14.80;95.70
16263;DHT22;8239;48.594;8.598;2023-08-07T07:12:57;14.90;96.40
16263;DHT22;8239;48.594;8.598;2023-08-07T07:15:25;14.90;94.80
16263;DHT22;8239;48.594;8.598;2023-08-07T07:17:52;14.70;94.90
16263;DHT22;8239;48.594;8.598;2023-08-07T07:20:19;14.70;95.80
16263;DHT22;8239;48.594;8.598;2023-08-07T07:22:46;15.00;94.80
16263;DHT22;8239;48.594;8.598;2023-08-07T07:25:13;15.20;94.50
16263;DHT22;8239;48.594;8.598;2023-08-07T07:27:40;15.40;95.00
16263;DHT22;8239;48.594;8.598;2023-08-07T07:30:08;16.10;95.10
16263;DHT22;8239;48.594;8.598;2023-08-07T07:32:36;16.70;93.10
16263;DHT22;8239;48.594;8.598;2023-08-07T07:35:07;17.00;90.10
16263;DHT22;8239;48.594;8.598;2023-08-07T07:37:34;17.20;87.60
16263;DHT22;8239;48.594;8.598;2023-08-07T07:40:01;17.00;86.10
16263;DHT22;8239;48.594;8.598;2023-08-07T07:42:28;17.00;85.20
16263;DHT22;8239;48.594;8.598;2023-08-07T07:44:55;16.90;86.00
16263;DHT22;8239;48.594;8.598;2023-08-07T07:47:22;16.70;83.70
16263;DHT22;8239;48.594;8.598;2023-08-07T07:50:05;16.70;85.70
16263;DHT22;8239;48.594;8.598;2023-08-07T07:52:32;17.10;83.70
16263;DHT22;8239;48.594;8.598;2023-08-07T07:54:59;17.40;82.20
16263;DHT22;8239;48.594;8.598;2023-08-07T07:57:26;17.60;82.60
16263;DHT22;8239;48.594;8.598;2023-08-07T07:59:53;17.70;80.30
16263;DHT22;8239;48.594;8.598;2023-08-07T08:02:21;17.60;80.80
16263;DHT22;8239;48.594;8.598;2023-08-07T08:04:51;17.60;75.10
16263;DHT22;8239;48.594;8.598;2023-08-07T08:07:18;17.70;75.10
16263;DHT22;8239;48.594;8.598;2023-08-07T08:09:45;18.00;73.30
16263;DHT22;8239;48.594;8.598;2023-08-07T08:12:12;18.10;73.20
16263;DHT22;8239;48.594;8.598;2023-08-07T08:14:39;18.10;74.40
16263;DHT22;8239;48.594;8.598;2023-08-07T08:17:07;18.20;72.70
16263;DHT22;8239;48.594;8.598;2023-08-07T08:19:34;18.20;72.00
16263;DHT22;8239;48.594;8.598;2023-08-07T08:22:03;18.30;70.50
16263;DHT22;8239;48.594;8.598;2023-08-07T08:24:30;18.70;69.40
16263;DHT22;8239;48.594;8.598;2023-08-07T08:26:58;19.10;68.70
16263;DHT22;8239;48.594;8.598;2023-08-07T08:29:25;19.50;66.20
16263;DHT22;8239;48.594;8.598;2023-08-07T08:31:53;20.20;64.20
16263;DHT22;8239;48.594;8.598;2023-08-07T08:34:21;20.80;62.50
16263;DHT22;8239;48.594;8.598;2023-08-07T08:36:48;21.50;60.60
16263;DHT22;8239;48.594;8.598;2023-08-07T08:39:16;21.40;57.20
16263;DHT22;8239;48.594;8.598;2023-08-07T08:41:46;20.80;58.40
16263;DHT22;8239;48.594;8.598;2023-08-07T08:44:14;20.30;60.50
16263;DHT22;8239;48.594;8.598;2023-08-07T08:46:43;19.70;61.20
16263;DHT22;8239;48.594;8.598;2023-08-07T08:49:11;19.30;64.70
16263;DHT22;8239;48.594;8.598;2023-08-07T08:51:40;19.00;65.30
16263;DHT22;8239;48.594;8.598;2023-08-07T08:54:08;18.80;64.20
16263;DHT22;8239;48.594;8.598;2023-08-07T08:56:37;19.00;64.80
16263;DHT22;8239;48.594;8.598;2023-08-07T08:59:05;19.60;64.80
16263;DHT22;8239;48.594;8.598;2023-08-07T09:01:32;20.00;60.50
16263;DHT22;8239;48.594;8.598;2023-08-07T09:04:01;20.00;58.60
16263;DHT22;8239;48.594;8.598;2023-08-07T09:06:31;20.00;59.60
16263;DHT22;8239;48.594;8.598;2023-08-07T09:08:59;19.90;59.70
16263;DHT22;8239;48.594;8.598;2023-08-07T09:11:28;19.70;60.20
16263;DHT22;8239;48.594;8.598;2023-08-07T09:13:57;19.70;62.80
16263;DHT22;8239;48.594;8.598;2023-08-07T09:16:27;20.10;59.20
16263;DHT22;8239;48.594;8.598;2023-08-07T09:18:54;20.10;59.60
16263;DHT22;8239;48.594;8.598;2023-08-07T09:21:21;19.90;59.20
16263;DHT22;8239;48.594;8.598;2023-08-07T09:23:48;19.40;58.60
16263;DHT22;8239;48.594;8.598;2023-08-07T09:26:21;18.80;59.30
16263;DHT22;8239;48.594;8.598;2023-08-07T09:28:51;18.10;62.80
16263;DHT22;8239;48.594;8.598;2023-08-07T09:31:20;17.50;63.20
16263;DHT22;8239;48.594;8.598;2023-08-07T09:33:48;17.10;65.30
16263;DHT22;8239;48.594;8.598;2023-08-07T09:36:16;16.90;66.50
16263;DHT22;8239;48.594;8.598;2023-08-07T09:38:49;16.90;68.10
16263;DHT22;8239;48.594;8.598;2023-08-07T09:41:18;17.10;66.20
16263;DHT22;8239;48.594;8.598;2023-08-07T09:43:45;17.20;65.60
16263;DHT22;8239;48.594;8.598;2023-08-07T09:46:13;17.20;67.30
16263;DHT22;8239;48.594;8.598;2023-08-07T09:48:42;17.30;66.30
16263;DHT22;8239;48.594;8.598;2023-08-07T09:51:10;17.40;67.30
16263;DHT22;8239;48.594;8.598;2023-08-07T09:53:38;17.50;68.30
16263;DHT22;8239;48.594;8.598;2023-08-07T09:56:06;17.60;66.20
16263;DHT22;8239;48.594;8.598;2023-08-07T09:58:33;17.60;66.50
16263;DHT22;8239;48.594;8.598;2023-08-07T10:01:02;17.50;67.30
16263;DHT22;8239;48.594;8.598;2023-08-07T10:03:30;17.50;67.60
16263;DHT22;8239;48.594;8.598;2023-08-07T10:05:59;17.60;68.90
16263;DHT22;8239;48.594;8.598;2023-08-07T10:08:26;17.90;68.20
16263;DHT22;8239;48.594;8.598;2023-08-07T10:10:55;18.20;67.10
16263;DHT22;8239;48.594;8.598;2023-08-07T10:13:23;18.40;67.30
16263;DHT22;8239;48.594;8.598;2023-08-07T10:15:50;18.80;64.90
16263;DHT22;8239;48.594;8.598;2023-08-07T10:18:17;18.80;62.30
16263;DHT22;8239;48.594;8.598;2023-08-07T10:20:44;18.60;62.70
16263;DHT22;8239;48.594;8.598;2023-08-07T10:23:15;18.30;65.00
16263;DHT22;8239;48.594;8.598;2023-08-07T10:25:45;18.00;65.90
16263;DHT22;8239;48.594;8.598;2023-08-07T10:28:16;18.10;66.60
16263;DHT22;8239;48.594;8.598;2023-08-07T10:30:44;18.40;67.80
16263;DHT22;8239;48.594;8.598;2023-08-07T10:33:13;19.10;68.20
16263;DHT22;8239;48.594;8.598;2023-08-07T10:35:45;19.90;66.00
16263;DHT22;8239;48.594;8.598;2023-08-07T10:38:19;20.50;63.40
16263;DHT22;8239;48.594;8.598;2023-08-07T10:40:59;20.50;58.90
16263;DHT22;8239;48.594;8.598;2023-08-07T10:43:27;20.00;59.60
16263;DHT22;8239;48.594;8.598;2023-08-07T10:45:54;19.60;59.90
16263;DHT22;8239;48.594;8.598;2023-08-07T10:48:27;19.20;61.40
16263;DHT22;8239;48.594;8.598;2023-08-07T10:51:03;19.00;61.70
16263;DHT22;8239;48.594;8.598;2023-08-07T10:53:34;18.90;61.90
16263;DHT22;8239;48.594;8.598;2023-08-07T10:56:02;18.80;62.00
16263;DHT22;8239;48.594;8.598;2023-08-07T10:58:32;18.70;63.20
16263;DHT22;8239;48.594;8.598;2023-08-07T11:01:22;18.50;63.80
16263;DHT22;8239;48.594;8.598;2023-08-07T11:03:51;18.40;63.00
16263;DHT22;8239;48.594;8.598;2023-08-07T11:08:50;17.80;62.80
16263;DHT22;8239;48.594;8.598;2023-08-07T11:11:17;17.80;64.40
16263;DHT22;8239;48.594;8.598;2023-08-07T11:13:44;18.10;67.30
16263;DHT22;8239;48.594;8.598;2023-08-07T11:16:11;18.50;65.70
16263;DHT22;8239;48.594;8.598;2023-08-07T11:18:39;18.80;64.50
16263;DHT22;8239;48.594;8.598;2023-08-07T11:21:07;18.80;63.50
16263;DHT22;8239;48.594;8.598;2023-08-07T11:23:36;18.50;62.20
16263;DHT22;8239;48.594;8.598;2023-08-07T11:26:04;18.10;63.70
16263;DHT22;8239;48.594;8.598;2023-08-07T11:28:31;17.60;65.20
16263;DHT22;8239;48.594;8.598;2023-08-07T11:30:58;17.30;65.90
16263;DHT22;8239;48.594;8.598;2023-08-07T11:33:26;17.10;67.20
16263;DHT22;8239;48.594;8.598;2023-08-07T11:35:54;17.40;67.90
16263;DHT22;8239;48.594;8.598;2023-08-07T11:38:32;17.90;67.60
16263;DHT22;8239;48.594;8.598;2023-08-07T11:40:59;18.10;66.00
16263;DHT22;8239;48.594;8.598;2023-08-07T11:43:29;18.00;65.70
16263;DHT22;8239;48.594;8.598;2023-08-07T11:45:57;17.70;66.20
16263;DHT22;8239;48.594;8.598;2023-08-07T11:48:26;17.40;67.20
16263;DHT22;8239;48.594;8.598;2023-08-07T11:50:54;17.00;66.70
16263;DHT22;8239;48.594;8.598;2023-08-07T11:53:22;16.60;68.30
16263;DHT22;8239;48.594;8.598;2023-08-07T11:55:53;16.40;70.70
16263;DHT22;8239;48.594;8.598;2023-08-07T11:58:21;16.50;71.90
16263;DHT22;8239;48.594;8.598;2023-08-07T12:00:52;16.70;69.50
16263;DHT22;8239;48.594;8.598;2023-08-07T12:03:26;17.00;70.10
16263;DHT22;8239;48.594;8.598;2023-08-07T12:05:56;17.10;68.80
16263;DHT22;8239;48.594;8.598;2023-08-07T12:08:23;17.00;68.30
16263;DHT22;8239;48.594;8.598;2023-08-07T12:10:50;17.00;69.60
16263;DHT22;8239;48.594;8.598;2023-08-07T12:13:23;17.00;69.70
16263;DHT22;8239;48.594;8.598;2023-08-07T12:15:54;17.00;69.40
16263;DHT22;8239;48.594;8.598;2023-08-07T12:18:21;17.00;68.90
16263;DHT22;8239;48.594;8.598;2023-08-07T12:20:49;16.90;68.20
16263;DHT22;8239;48.594;8.598;2023-08-07T12:23:18;16.70;67.10
16263;DHT22;8239;48.594;8.598;2023-08-07T12:25:47;16.60;68.60
16263;DHT22;8239;48.594;8.598;2023-08-07T12:28:15;16.50;69.70
16263;DHT22;8239;48.594;8.598;2023-08-07T12:30:44;16.50;71.60
16263;DHT22;8239;48.594;8.598;2023-08-07T12:33:14;16.60;71.20
16263;DHT22;8239;48.594;8.598;2023-08-07T12:35:41;16.60;70.30
16263;DHT22;8239;48.594;8.598;2023-08-07T12:38:09;17.00;72.30
16263;DHT22;8239;48.594;8.598;2023-08-07T12:40:37;18.00;73.20
16263;DHT22;8239;48.594;8.598;2023-08-07T12:43:04;18.90;68.80
16263;DHT22;8239;48.594;8.598;2023-08-07T12:45:32;19.20;63.60
16263;DHT22;8239;48.594;8.598;2023-08-07T12:47:59;19.20;63.60
16263;DHT22;8239;48.594;8.598;2023-08-07T12:50:28;18.80;62.80
16263;DHT22;8239;48.594;8.598;2023-08-07T12:52:56;18.30;64.40
16263;DHT22;8239;48.594;8.598;2023-08-07T12:55:24;18.00;65.30
16263;DHT22;8239;48.594;8.598;2023-08-07T12:57:52;17.80;66.10
16263;DHT22;8239;48.594;8.598;2023-08-07T13:00:20;17.70;68.00
16263;DHT22;8239;48.594;8.598;2023-08-07T13:02:48;17.70;66.30
16263;DHT22;8239;48.594;8.598;2023-08-07T13:05:16;18.20;68.70
16263;DHT22;8239;48.594;8.598;2023-08-07T13:07:46;19.40;69.80
16263;DHT22;8239;48.594;8.598;2023-08-07T13:10:14;20.70;65.60
16263;DHT22;8239;48.594;8.598;2023-08-07T13:12:43;22.00;61.50
16263;DHT22;8239;48.594;8.598;2023-08-07T13:15:13;22.70;57.70
16263;DHT22;8239;48.594;8.598;2023-08-07T13:17:40;23.40;57.80
16263;DHT22;8239;48.594;8.598;2023-08-07T13:20:08;24.00;54.60
16263;DHT22;8239;48.594;8.598;2023-08-07T13:22:39;24.20;55.30
16263;DHT22;8239;48.594;8.598;2023-08-07T13:25:09;24.50;54.30
16263;DHT22;8239;48.594;8.598;2023-08-07T13:27:37;24.70;51.30
16263;DHT22;8239;48.594;8.598;2023-08-07T13:30:05;24.70;50.30
16263;DHT22;8239;48.594;8.598;2023-08-07T13:32:33;24.50;51.80
16263;DHT22;8239;48.594;8.598;2023-08-07T13:35:00;24.40;51.40
16263;DHT22;8239;48.594;8.598;2023-08-07T13:37:28;24.10;51.70
16263;DHT22;8239;48.594;8.598;2023-08-07T13:39:55;23.50;51.60
16263;DHT22;8239;48.594;8.598;2023-08-07T13:42:25;22.80;52.80
16263;DHT22;8239;48.594;8.598;2023-08-07T13:44:53;21.70;53.10
16263;DHT22;8239;48.594;8.598;2023-08-07T13:47:20;20.50;55.60
16263;DHT22;8239;48.594;8.598;2023-08-07T13:49:47;20.20;57.50
16263;DHT22;8239;48.594;8.598;2023-08-07T13:52:14;20.20;57.90
16263;DHT22;8239;48.594;8.598;2023-08-07T13:54:42;20.60;58.50
16263;DHT22;8239;48.594;8.598;2023-08-07T13:57:08;20.60;56.00
16263;DHT22;8239;48.594;8.598;2023-08-07T13:59:37;20.20;57.60
16263;DHT22;8239;48.594;8.598;2023-08-07T14:02:04;19.60;58.50
16263;DHT22;8239;48.594;8.598;2023-08-07T14:04:32;19.00;59.90
16263;DHT22;8239;48.594;8.598;2023-08-07T14:06:59;18.40;62.40
16263;DHT22;8239;48.594;8.598;2023-08-07T14:09:26;18.10;64.00
16263;DHT22;8239;48.594;8.598;2023-08-07T14:11:53;17.90;63.50
16263;DHT22;8239;48.594;8.598;2023-08-07T14:14:21;17.80;65.20
16263;DHT22;8239;48.594;8.598;2023-08-07T14:16:49;17.80;65.10
16263;DHT22;8239;48.594;8.598;2023-08-07T14:19:16;17.80;65.80
16263;DHT22;8239;48.594;8.598;2023-08-07T14:21:43;17.80;65.40
16263;DHT22;8239;48.594;8.598;2023-08-07T14:24:10;17.80;66.40
16263;DHT22;8239;48.594;8.598;2023-08-07T14:26:37;17.80;67.80
16263;DHT22;8239;48.594;8.598;2023-08-07T14:29:04;17.70;67.10
16263;DHT22;8239;48.594;8.598;2023-08-07T14:31:31;17.60;67.70
16263;DHT22;8239;48.594;8.598;2023-08-07T14:33:59;17.70;67.90
16263;DHT22;8239;48.594;8.598;2023-08-07T14:36:26;17.80;67.50
16263;DHT22;8239;48.594;8.598;2023-08-07T14:38:53;17.90;68.20
16263;DHT22;8239;48.594;8.598;2023-08-07T14:41:20;18.40;67.70
16263;DHT22;8239;48.594;8.598;2023-08-07T14:43:47;19.10;66.50
16263;DHT22;8239;48.594;8.598;2023-08-07T14:46:15;19.90;64.10
16263;DHT22;8239;48.594;8.598;2023-08-07T14:48:42;20.50;61.30
16263;DHT22;8239;48.594;8.598;2023-08-07T14:51:11;20.90;57.10
16263;DHT22;8239;48.594;8.598;2023-08-07T14:53:38;20.90;57.40
16263;DHT22;8239;48.594;8.598;2023-08-07T14:56:05;20.60;56.20
16263;DHT22;8239;48.594;8.598;2023-08-07T14:58:34;20.20;57.60
16263;DHT22;8239;48.594;8.598;2023-08-07T15:01:01;19.80;57.90
16263;DHT22;8239;48.594;8.598;2023-08-07T15:03:27;19.30;57.80
16263;DHT22;8239;48.594;8.598;2023-08-07T15:05:54;18.80;59.20
16263;DHT22;8239;48.594;8.598;2023-08-07T15:08:24;18.50;61.10
16263;DHT22;8239;48.594;8.598;2023-08-07T15:10:51;18.30;63.70
16263;DHT22;8239;48.594;8.598;2023-08-07T15:13:19;18.30;63.20
16263;DHT22;8239;48.594;8.598;2023-08-07T15:15:46;18.30;63.90
16263;DHT22;8239;48.594;8.598;2023-08-07T15:18:13;18.40;63.40
16263;DHT22;8239;48.594;8.598;2023-08-07T15:20:40;18.80;65.00
16263;DHT22;8239;48.594;8.598;2023-08-07T15:23:07;19.40;64.70
16263;DHT22;8239;48.594;8.598;2023-08-07T15:25:37;19.90;61.60
16263;DHT22;8239;48.594;8.598;2023-08-07T15:28:05;20.40;62.50
16263;DHT22;8239;48.594;8.598;2023-08-07T15:30:32;20.90;61.50
16263;DHT22;8239;48.594;8.598;2023-08-07T15:32:59;21.30;58.60
16263;DHT22;8239;48.594;8.598;2023-08-07T15:35:29;21.20;56.20
16263;DHT22;8239;48.594;8.598;2023-08-07T15:37:57;20.80;56.70
16263;DHT22;8239;48.594;8.598;2023-08-07T15:40:25;20.20;57.70
16263;DHT22;8239;48.594;8.598;2023-08-07T15:42:54;19.80;58.60
16263;DHT22;8239;48.594;8.598;2023-08-07T15:45:22;19.80;61.50
16263;DHT22;8239;48.594;8.598;2023-08-07T15:47:49;19.90;60.40
16263;DHT22;8239;48.594;8.598;2023-08-07T15:50:16;19.80;59.60
16263;DHT22;8239;48.594;8.598;2023-08-07T15:52:43;19.70;60.90
16263;DHT22;8239;48.594;8.598;2023-08-07T15:55:11;19.60;61.20
16263;DHT22;8239;48.594;8.598;2023-08-07T15:57:38;19.50;61.40
16263;DHT22;8239;48.594;8.598;2023-08-07T16:00:07;19.70;61.50